Terminal Aerodrome Forecast
Issued by NWS

Home | Current Version | Previous Version | Text Only | Print | Product List | Glossary On
Versions: 1 2 3 4 5 6 7 8 9 10 11 12 13 14 15 16 17 18
000
FTUS44 KOHX 250804 AAA
TAFCKV
TAF AMD
KCKV 250804Z 2508/2606 00000KT 5SM BR SKC
     FM251300 08004KT P6SM SCT040
     FM251800 05005KT P6SM VCSH SCT045=

USA.gov is the U.S. government's official web portal to all federal, state and local government web resources and services.